Time;durP1;ratioP1;P1;durP2;ratioP2;P2;SDS_P1;SDS_P2;PMS_P1;PMS_P2;Temp;Humidity;BMP_temperature;BMP_pressure;BME280_temperature;BME280_humidity;BME280_pressure;Samples;Min_cycle;Max_cycle;Signal;HPM_P1;HPM_P2
2022/05/17 04:13:41;;;;;;;12.65;7.95;;;;;;;18.03;72.87;100327.56;5549047;32;483244;-88
2022/05/17 04:16:45;;;;;;;13.88;8.18;;;;;;;18.03;72.87;100327.56;5544374;32;34262;-89
2022/05/17 04:19:48;;;;;;;13.18;7.97;;;;;;;17.64;73.25;100326.19;5544849;32;34037;-89
2022/05/17 04:22:52;;;;;;;12.15;7.62;;;;;;;17.76;72.37;100335.06;5561990;26;34599;-89
2022/05/17 04:29:41;;;;;;;8.35;7.00;;;;;;;17.92;72.60;100333.84;5006216;26;20479;-90
2022/05/17 04:32:44;;;;;;;14.70;7.93;;;;;;;17.94;73.11;100337.22;5543778;32;34107;-90
2022/05/17 04:35:46;;;;;;;9.13;7.45;;;;;;;17.97;73.50;100336.13;5542868;32;34049;-90
2022/05/17 04:39:06;;;;;;;11.75;7.55;;;;;;;18.03;73.11;100332.94;5561250;26;33747;-90
2022/05/17 04:42:09;;;;;;;14.25;7.57;;;;;;;17.97;73.22;100328.94;5580270;32;33673;-90
2022/05/17 04:45:15;;;;;;;9.60;6.80;;;;;;;17.97;73.51;100328.06;5592757;26;33474;-90
2022/05/17 04:51:57;;;;;;;12.93;7.93;;;;;;;17.95;73.31;100336.25;5606368;26;20115;-93
2022/05/17 04:55:14;;;;;;;9.23;7.78;;;;;;;17.98;73.43;100330.66;5582880;31;33779;-89
2022/05/17 04:58:19;;;;;;;11.45;7.97;;;;;;;18.01;73.61;100330.38;5569124;32;33222;-90
2022/05/17 05:01:22;;;;;;;9.80;7.35;;;;;;;18.19;72.61;100343.28;5583804;31;33705;-90
2022/05/17 05:04:24;;;;;;;10.10;7.65;;;;;;;18.29;72.53;100335.31;5588761;26;32956;-90
2022/05/17 05:07:30;;;;;;;10.00;7.50;;;;;;;18.34;72.57;100340.34;5582830;26;32833;-89
2022/05/17 05:10:33;;;;;;;11.57;7.62;;;;;;;18.56;71.60;100331.31;5581289;31;34321;-90
2022/05/17 05:13:36;;;;;;;8.80;7.25;;;;;;;18.64;71.48;100334.22;5582713;32;34150;-89
2022/05/17 05:16:38;;;;;;;10.38;7.18;;;;;;;18.53;71.77;100332.44;5583771;32;33816;-90
2022/05/17 05:23:26;;;;;;;10.38;7.97;;;;;;;18.98;69.34;100320.59;5610458;26;33704;-90
2022/05/17 06:08:25;;;;;;;12.18;8.38;;;;;;;20.02;65.20;100337.56;5440053;26;20147;-88
2022/05/17 06:11:30;;;;;;;13.15;7.82;;;;;;;19.85;65.52;100338.19;5572808;31;34002;-88
2022/05/17 06:18:18;;;;;;;11.90;8.75;;;;;;;20.28;64.62;100339.75;4100445;29;20103;-89
2022/05/17 06:21:21;;;;;;;12.60;8.35;;;;;;;20.64;63.21;100344.56;5560448;31;32390;-88
2022/05/17 06:24:27;;;;;;;13.75;9.15;;;;;;;20.57;63.33;100338.03;5562316;31;32222;-88
2022/05/17 06:28:08;;;;;;;14.27;9.18;;;;;;;20.80;63.44;100340.41;5637455;26;20110;-89
2022/05/17 06:31:11;;;;;;;13.48;8.27;;;;;;;21.34;60.51;100340.75;5567650;32;35288;-89
2022/05/17 06:34:14;;;;;;;16.70;8.27;;;;;;;21.58;60.25;100355.56;5591339;26;33562;-89
2022/05/17 06:37:17;;;;;;;13.13;7.43;;;;;;;22.38;58.30;100358.66;5575656;32;34095;-88
2022/05/17 06:48:00;;;;;;;17.50;8.82;;;;;;;22.98;55.93;100352.56;5631398;26;32089;-86
2022/05/17 06:51:06;;;;;;;12.27;8.30;;;;;;;22.62;57.61;100352.63;5556959;32;34008;-88
2022/05/17 06:54:09;;;;;;;12.18;8.60;;;;;;;22.15;58.75;100356.38;5534343;32;33331;-87
2022/05/17 06:57:16;;;;;;;17.65;8.30;;;;;;;22.38;57.68;100353.25;5557413;32;34351;-88
2022/05/17 07:00:20;;;;;;;14.23;8.30;;;;;;;21.97;59.39;100356.38;5549223;32;35122;-89
2022/05/17 07:03:25;;;;;;;14.23;7.90;;;;;;;21.73;59.61;100355.91;5559099;31;34716;-91
2022/05/17 07:06:31;;;;;;;14.20;8.05;;;;;;;21.86;59.05;100357.41;5562277;32;34627;-92
2022/05/17 07:16:38;;;;;;;13.30;7.87;;;;;;;21.93;60.24;100364.78;5551745;32;32204;-90
2022/05/17 07:19:43;;;;;;;13.80;7.75;;;;;;;21.65;61.40;100362.06;5553364;32;32778;-90
2022/05/17 07:22:46;;;;;;;17.45;8.23;;;;;;;21.76;61.23;100362.87;5567151;32;34287;-89
2022/05/17 07:25:49;;;;;;;17.83;7.87;;;;;;;21.86;61.30;100370.91;5567292;32;32189;-90
2022/05/17 07:28:51;;;;;;;11.05;8.18;;;;;;;21.78;61.50;100364.41;5566234;32;32573;-88
2022/05/17 07:31:55;;;;;;;10.15;7.47;;;;;;;22.27;60.08;100359.75;5559807;32;33362;-89
2022/05/17 07:34:59;;;;;;;8.25;7.05;;;;;;;22.30;60.55;100364.81;5554642;32;34254;-87
2022/05/17 07:38:03;;;;;;;9.23;6.45;;;;;;;22.62;59.61;100361.59;5562265;32;33600;-88
2022/05/17 07:41:07;;;;;;;9.80;6.05;;;;;;;22.78;59.35;100373.53;5576265;32;34091;-88
2022/05/17 07:44:11;;;;;;;10.55;6.57;;;;;;;23.10;58.71;100373.97;5556480;32;33372;-87
2022/05/17 07:47:14;;;;;;;8.30;7.00;;;;;;;22.56;59.88;100370.34;5549700;32;32578;-88
2022/05/17 07:50:17;;;;;;;13.23;6.60;;;;;;;22.07;61.63;100370.66;5560220;32;34491;-88
2022/05/17 07:53:22;;;;;;;7.93;6.80;;;;;;;22.10;62.41;100377.59;5559571;32;32542;-87
2022/05/17 07:56:25;;;;;;;11.40;7.05;;;;;;;21.56;64.36;100383.69;5562618;32;33417;-89
2022/05/17 07:59:28;;;;;;;10.65;7.10;;;;;;;21.39;64.60;100378.94;5582486;26;34362;-86
2022/05/17 08:02:30;;;;;;;16.15;8.13;;;;;;;20.94;67.08;100372.37;5547059;32;32679;-87
2022/05/17 08:05:33;;;;;;;9.48;7.60;;;;;;;20.58;68.20;100378.28;5559777;32;34437;-88
2022/05/17 08:08:36;;;;;;;9.57;8.10;;;;;;;20.71;68.39;100390.63;5540797;32;34296;-88
2022/05/17 08:11:40;;;;;;;9.93;8.05;;;;;;;20.44;71.71;100384.97;5540504;32;32477;-89
2022/05/17 08:14:44;;;;;;;12.07;8.48;;;;;;;20.02;75.33;100387.88;5546105;32;32152;-87
2022/05/17 08:17:47;;;;;;;14.35;9.00;;;;;;;19.75;78.36;100384.78;5564577;32;35419;-88
2022/05/17 08:20:49;;;;;;;11.38;8.60;;;;;;;19.58;80.14;100380.91;5567214;31;33806;-87
2022/05/17 08:23:53;;;;;;;9.70;8.70;;;;;;;19.42;81.19;100381.41;5556327;32;34220;-88
2022/05/17 08:30:20;;;;;;;13.52;9.50;;;;;;;19.46;83.70;100387.38;5542411;31;32837;-89
2022/05/17 08:33:26;;;;;;;15.27;9.32;;;;;;;19.09;82.40;100397.63;5565480;31;35076;-87
2022/05/17 08:36:29;;;;;;;15.20;9.07;;;;;;;19.48;82.52;100391.62;5537586;32;32644;-87
2022/05/17 08:39:31;;;;;;;15.50;9.27;;;;;;;19.56;82.05;100398.19;5565349;32;33703;-87
2022/05/17 08:42:57;;;;;;;13.25;9.10;;;;;;;19.31;83.02;100406.53;5563909;32;33738;-87
2022/05/17 08:46:38;;;;;;;14.30;8.07;;;;;;;19.38;80.39;100405.03;5541712;31;34190;-87
2022/05/17 08:49:44;;;;;;;13.57;9.07;;;;;;;19.34;80.53;100406.28;5562178;31;34535;-87
2022/05/17 08:52:47;;;;;;;9.48;7.95;;;;;;;19.11;79.74;100405.59;5542975;32;32789;-88
2022/05/17 08:55:52;;;;;;;9.88;8.40;;;;;;;19.28;81.27;100405.94;5553216;32;34449;-87
2022/05/17 08:58:56;;;;;;;13.43;8.73;;;;;;;18.99;81.58;100418.19;5538377;32;33314;-87
2022/05/17 09:02:06;;;;;;;11.15;8.85;;;;;;;19.10;81.13;100409.22;5562460;32;32770;-89
2022/05/17 09:05:21;;;;;;;12.37;8.32;;;;;;;19.17;81.54;100405.06;5587188;26;33925;-88
2022/05/17 09:09:03;;;;;;;11.50;9.55;;;;;;;19.24;81.51;100408.91;5567888;32;33970;-89
2022/05/17 09:12:21;;;;;;;13.95;8.55;;;;;;;19.26;81.52;100412.31;5563080;32;34052;-90
2022/05/17 09:15:24;;;;;;;13.13;9.20;;;;;;;19.64;81.03;100422.56;5562444;32;34511;-89
2022/05/17 09:18:31;;;;;;;12.18;9.52;;;;;;;19.78;78.96;100418.66;5559605;32;33833;-89
2022/05/17 09:21:39;;;;;;;10.80;9.27;;;;;;;19.83;78.81;100416.41;5550297;32;34305;-89
2022/05/17 09:24:46;;;;;;;13.10;8.70;;;;;;;19.72;77.80;100419.19;5553466;32;32530;-89
2022/05/17 09:27:52;;;;;;;11.73;8.63;;;;;;;19.83;78.24;100413.72;5554131;32;33166;-89
2022/05/17 09:31:16;;;;;;;10.48;9.15;;;;;;;19.78;78.72;100418.66;5549697;32;34680;-88
2022/05/17 09:34:39;;;;;;;11.35;9.30;;;;;;;19.63;79.79;100421.72;5557387;32;34342;-89
2022/05/17 09:37:49;;;;;;;23.12;9.13;;;;;;;19.43;81.77;100420.78;5560088;32;34227;-87
2022/05/17 09:40:54;;;;;;;14.55;9.13;;;;;;;19.64;80.17;100419.87;5567517;26;33739;-87
2022/05/17 09:44:09;;;;;;;15.43;9.00;;;;;;;19.92;80.58;100422.81;5537327;32;32688;-88
2022/05/17 09:47:26;;;;;;;11.02;8.20;;;;;;;19.91;80.95;100424.66;5541359;32;33097;-87
2022/05/17 09:53:59;;;;;;;11.93;8.50;;;;;;;19.72;83.47;100419.19;5531546;32;33793;-86
2022/05/17 09:57:10;;;;;;;12.63;8.52;;;;;;;19.56;82.01;100420.53;5534189;32;33532;-86
2022/05/17 10:00:20;;;;;;;16.98;8.57;;;;;;;19.46;85.13;100419.66;5546945;32;33537;-86
2022/05/17 10:03:36;;;;;;;14.05;9.23;;;;;;;19.15;87.70;100428.50;5541818;32;34041;-87
2022/05/17 10:06:45;;;;;;;12.02;10.45;;;;;;;18.99;88.95;100420.88;5536138;32;33660;-84
2022/05/17 10:09:49;;;;;;;14.82;10.63;;;;;;;18.77;94.99;100417.31;5536049;32;33730;-84
2022/05/17 10:12:59;;;;;;;12.25;9.65;;;;;;;18.37;98.08;100418.81;5540906;32;34941;-83
2022/05/17 10:16:16;;;;;;;17.23;10.68;;;;;;;18.33;98.04;100417.34;5543385;32;34616;-84
2022/05/17 10:19:40;;;;;;;14.57;10.85;;;;;;;18.84;94.65;100412.28;5532086;32;32364;-82
2022/05/17 10:22:59;;;;;;;14.00;10.68;;;;;;;19.15;95.19;100414.22;5538222;32;34245;-82
2022/05/17 10:26:33;;;;;;;11.20;10.00;;;;;;;19.43;90.25;100411.84;5554768;32;34412;-81
2022/05/17 10:29:51;;;;;;;12.20;10.20;;;;;;;19.75;89.93;100403.63;5521148;32;34149;-85
2022/05/17 10:33:02;;;;;;;14.32;11.00;;;;;;;20.09;85.23;100401.62;5537271;32;35333;-83
2022/05/17 10:36:23;;;;;;;14.95;10.85;;;;;;;20.09;83.36;100402.50;5536789;32;32942;-83
2022/05/17 10:39:59;;;;;;;13.48;10.18;;;;;;;20.32;83.93;100403.09;5551778;32;32449;-83
2022/05/17 10:43:05;;;;;;;17.23;10.57;;;;;;;20.64;78.96;100395.75;5525058;32;32824;-82
2022/05/17 10:46:15;;;;;;;15.63;10.75;;;;;;;20.81;80.38;100390.66;5536313;32;33026;-83
2022/05/17 10:49:48;;;;;;;14.00;9.68;;;;;;;20.93;78.66;100399.47;5538551;32;34359;-84
2022/05/17 10:53:29;;;;;;;11.88;8.93;;;;;;;21.06;76.51;100394.59;5496543;32;33019;-84
2022/05/17 10:57:03;;;;;;;13.00;8.70;;;;;;;20.73;74.25;100394.88;5528304;32;33740;-89
2022/05/17 11:00:18;;;;;;;13.90;8.75;;;;;;;20.72;75.98;100387.81;5537338;32;34350;-86
2022/05/17 11:03:38;;;;;;;11.60;8.65;;;;;;;21.12;72.06;100387.81;5534764;32;34528;-84
2022/05/17 11:07:05;;;;;;;12.73;8.23;;;;;;;21.61;69.71;100379.53;5535251;32;32404;-84
2022/05/17 11:10:16;;;;;;;12.18;8.75;;;;;;;22.04;69.51;100390.75;5530213;32;34214;-84
2022/05/17 11:13:42;;;;;;;10.55;8.95;;;;;;;21.79;69.21;100392.28;5530465;32;32738;-84
2022/05/17 11:17:12;;;;;;;11.88;9.55;;;;;;;21.44;71.85;100391.09;5548055;32;32362;-84
2022/05/17 11:20:20;;;;;;;13.02;8.65;;;;;;;21.57;70.91;100391.62;5551282;32;34232;-85
2022/05/17 11:23:48;;;;;;;13.20;8.93;;;;;;;21.62;71.19;100389.34;5533291;32;33759;-88
2022/05/17 11:27:25;;;;;;;13.27;9.38;;;;;;;21.43;71.12;100387.56;5540299;32;33178;-85
2022/05/17 11:30:43;;;;;;;14.43;8.95;;;;;;;21.20;72.77;100381.66;5547227;32;34507;-85
2022/05/17 11:33:46;;;;;;;14.32;8.95;;;;;;;21.10;74.97;100369.06;5543644;32;32418;-85
2022/05/17 11:36:56;;;;;;;11.38;9.07;;;;;;;21.07;72.05;100371.19;5564559;32;33456;-85
2022/05/17 11:40:10;;;;;;;10.13;8.50;;;;;;;21.07;70.75;100368.50;5536654;32;33304;-85
2022/05/17 11:43:43;;;;;;;11.60;8.23;;;;;;;20.90;69.88;100354.75;5542579;32;33995;-85
2022/05/17 11:46:54;;;;;;;10.80;7.90;;;;;;;20.97;71.85;100360.44;5555213;32;35071;-84
2022/05/17 11:50:16;;;;;;;9.20;7.35;;;;;;;21.08;68.82;100354.84;5531380;32;32821;-83
2022/05/17 11:53:23;;;;;;;10.25;7.35;;;;;;;20.92;66.14;100352.75;5528810;32;33432;-85
2022/05/17 11:56:25;;;;;;;8.38;7.32;;;;;;;21.32;66.50;100349.97;5535344;32;34978;-86
2022/05/17 11:59:28;;;;;;;9.55;7.30;;;;;;;21.51;66.19;100352.59;5543727;32;34094;-87
2022/05/17 12:02:53;;;;;;;10.70;7.57;;;;;;;21.64;65.05;100346.88;5531624;32;32956;-86
2022/05/17 12:05:57;;;;;;;9.95;7.85;;;;;;;21.50;67.07;100341.94;5536569;32;33818;-86
2022/05/17 12:09:00;;;;;;;10.68;6.95;;;;;;;21.37;68.26;100337.72;5541505;32;33753;-86
2022/05/17 12:12:54;;;;;;;8.85;6.43;;;;;;;21.17;65.84;100336.13;5546878;32;32597;-86
2022/05/17 12:15:57;;;;;;;8.93;6.60;;;;;;;21.22;65.62;100340.06;5517693;32;32669;-85
2022/05/17 12:19:10;;;;;;;9.32;6.57;;;;;;;21.00;67.43;100330.47;5559039;32;34176;-85
2022/05/17 12:22:23;;;;;;;8.68;6.55;;;;;;;21.17;65.88;100338.81;5554117;32;33622;-85
2022/05/17 12:26:05;;;;;;;8.35;6.12;;;;;;;21.35;64.54;100328.09;5539737;32;32761;-86
2022/05/17 12:32:38;;;;;;;8.60;6.45;;;;;;;21.70;64.51;100326.53;5541971;32;32770;-85
2022/05/17 12:35:41;;;;;;;9.43;6.43;;;;;;;21.97;63.04;100327.50;5556530;32;34396;-87
2022/05/17 12:46:00;;;;;;;9.95;5.75;;;;;;;21.62;64.03;100323.72;5544233;32;34463;-85
2022/05/17 12:49:17;;;;;;;9.95;6.00;;;;;;;21.48;62.58;100315.09;5543936;32;32901;-85
2022/05/17 12:52:41;;;;;;;7.07;6.15;;;;;;;21.27;63.12;100312.66;5548656;32;35163;-85
2022/05/17 12:56:11;;;;;;;7.10;6.37;;;;;;;21.19;64.68;100307.12;5536060;32;33733;-86
2022/05/17 12:59:22;;;;;;;;;;;;;;;21.06;65.24;100304.78;5549563;32;34293;-88
2022/05/17 13:02:25;;;;;;;10.65;6.87;;;;;;;20.95;67.57;100300.41;5530409;32;33021;-87
2022/05/17 13:05:43;;;;;;;10.77;6.53;;;;;;;20.97;66.91;100301.13;5529392;32;34349;-86
2022/05/17 13:08:47;;;;;;;8.05;6.72;;;;;;;20.92;67.96;100309.62;5530250;32;33999;-86
2022/05/17 13:11:52;;;;;;;9.98;7.00;;;;;;;20.69;68.56;100303.69;5533809;32;32524;-85
2022/05/17 13:15:05;;;;;;;9.27;7.43;;;;;;;20.59;70.37;100301.00;5540166;32;32672;-86
2022/05/17 13:18:12;;;;;;;12.45;7.10;;;;;;;19.93;74.39;100306.91;5539092;32;34693;-86
2022/05/17 13:21:21;;;;;;;9.57;7.72;;;;;;;19.65;78.66;100313.94;5552217;32;34012;-87
2022/05/17 13:24:35;;;;;;;13.15;8.90;;;;;;;19.63;80.46;100316.78;5545597;32;33155;-88
2022/05/17 13:27:46;;;;;;;18.67;9.98;;;;;;;19.07;85.04;100332.37;5548573;32;34523;-89
2022/05/17 13:30:49;;;;;;;21.37;10.23;;;;;;;18.21;95.80;100329.75;5541416;32;33609;-88
2022/05/17 13:33:59;;;;;;;17.12;10.15;;;;;;;17.67;100.00;100322.41;5537074;32;32407;-88
2022/05/17 13:37:03;;;;;;;13.80;10.23;;;;;;;17.69;100.00;100325.81;5536423;32;33289;-88
2022/05/17 13:40:06;;;;;;;13.60;10.10;;;;;;;17.50;100.00;100311.19;5594340;26;34013;-88
2022/05/17 13:43:37;;;;;;;15.63;10.13;;;;;;;17.52;100.00;100314.59;5588541;26;34138;-89
2022/05/17 13:46:48;;;;;;;16.45;10.48;;;;;;;17.67;100.00;100309.00;5551288;26;32433;-88
2022/05/17 13:49:59;;;;;;;18.00;10.95;;;;;;;17.55;100.00;100308.16;5519879;32;35312;-90
2022/05/17 13:53:06;;;;;;;14.73;11.38;;;;;;;17.82;100.00;100301.53;5527875;32;34485;-92
2022/05/17 13:56:09;;;;;;;14.55;11.82;;;;;;;18.23;100.00;100298.25;5519217;32;34481;-87
2022/05/17 13:59:15;;;;;;;18.62;12.07;;;;;;;18.52;100.00;100292.28;5526511;32;34971;-87
2022/05/17 14:02:48;;;;;;;17.35;13.35;;;;;;;18.74;100.00;100287.75;5530309;32;33190;-87
2022/05/17 14:05:51;;;;;;;18.37;14.20;;;;;;;18.84;100.00;100284.16;5519009;32;34607;-87
2022/05/17 14:12:23;;;;;;;18.67;15.13;;;;;;;19.49;100.00;100282.19;5532136;32;33049;-88
2022/05/17 14:15:26;;;;;;;18.65;14.65;;;;;;;19.58;100.00;100273.28;5523997;32;33988;-88
2022/05/17 14:18:34;;;;;;;20.52;15.80;;;;;;;19.85;100.00;100266.41;5517904;32;33321;-88
2022/05/17 14:21:37;;;;;;;17.50;14.63;;;;;;;20.06;100.00;100269.00;5522011;32;34572;-88
2022/05/17 14:24:41;;;;;;;17.52;14.20;;;;;;;20.15;99.01;100275.38;5520162;32;33915;-87
2022/05/17 14:27:43;;;;;;;15.05;12.70;;;;;;;20.15;100.00;100266.44;5532804;32;33687;-88
2022/05/17 14:30:47;;;;;;;16.67;12.65;;;;;;;19.74;93.86;100271.91;5591567;26;34475;-88
2022/05/17 14:33:52;;;;;;;17.37;12.88;;;;;;;19.95;94.69;100269.09;5599596;26;33913;-90
2022/05/17 14:36:56;;;;;;;14.77;12.07;;;;;;;19.77;95.13;100268.94;5523900;32;33345;-91
2022/05/17 14:39:59;;;;;;;15.27;12.02;;;;;;;19.42;97.28;100270.28;5531821;32;35041;-89
2022/05/17 14:43:03;;;;;;;13.00;11.60;;;;;;;19.57;95.55;100263.53;5534438;32;33787;-89
2022/05/17 14:46:10;;;;;;;13.35;12.00;;;;;;;19.39;97.37;100266.88;5521319;32;32492;-87
2022/05/17 14:49:22;;;;;;;14.60;11.95;;;;;;;19.37;98.07;100265.31;5541086;32;33155;-87
2022/05/17 14:52:25;;;;;;;13.40;12.00;;;;;;;19.28;96.57;100263.41;5530150;32;32662;-87
2022/05/17 14:55:28;;;;;;;14.98;10.95;;;;;;;19.18;97.41;100260.69;5539318;32;33759;-87
2022/05/17 14:58:31;;;;;;;15.77;11.25;;;;;;;19.36;94.06;100259.06;5515858;32;33425;-87
2022/05/17 15:01:37;;;;;;;15.02;12.25;;;;;;;19.46;95.87;100259.09;5515088;32;33315;-86
2022/05/17 15:04:41;;;;;;;15.43;12.70;;;;;;;19.59;96.28;100258.84;5519547;32;33861;-91
2022/05/17 15:07:48;;;;;;;12.98;11.65;;;;;;;19.19;98.79;100265.94;5533731;32;34150;-91
2022/05/17 15:10:53;;;;;;;15.43;12.57;;;;;;;19.12;95.86;100264.78;5528857;32;35171;-87
2022/05/17 15:13:56;;;;;;;13.10;11.70;;;;;;;19.31;98.18;100268.53;5529308;32;34645;-88
2022/05/17 15:16:59;;;;;;;15.98;11.90;;;;;;;19.56;94.97;100269.88;5514961;32;32380;-86
2022/05/17 15:20:07;;;;;;;14.38;12.63;;;;;;;19.38;95.96;100264.31;5530818;32;33550;-87
2022/05/17 15:23:10;;;;;;;14.45;12.10;;;;;;;19.22;96.87;100262.12;5536107;32;34722;-86
2022/05/17 15:26:13;;;;;;;15.65;12.85;;;;;;;19.29;96.27;100259.75;5547839;32;34172;-86
2022/05/17 15:29:16;;;;;;;16.23;12.88;;;;;;;19.25;96.90;100259.16;5533947;32;32284;-86
